createdAt,value
2018-03-28T00:00:18.128Z,96.56
2018-03-28T00:00:58.587Z,97.17
2018-03-28T00:01:39.064Z,97.22
2018-03-28T00:02:19.517Z,97.51
2018-03-28T00:03:00.012Z,97.7
2018-03-28T00:03:40.487Z,97.84
2018-03-28T00:04:20.974Z,98.13
2018-03-28T00:05:01.456Z,98.41
2018-03-28T00:05:41.974Z,98.27
2018-03-28T00:06:22.451Z,98.36
2018-03-28T00:07:02.934Z,97.94
2018-03-28T00:07:43.454Z,98.13
2018-03-28T00:08:23.921Z,98.7
2018-03-28T00:09:04.439Z,98.32
2018-03-28T00:09:44.941Z,98.41
2018-03-28T00:10:25.381Z,98.6
2018-03-28T00:11:05.929Z,98.18
2018-03-28T00:11:46.422Z,98.18
2018-03-28T00:12:26.917Z,98.22
2018-03-28T00:13:07.454Z,98.13
2018-03-28T00:13:47.880Z,98.41
2018-03-28T00:14:28.423Z,98.32
2018-03-28T00:15:08.934Z,98.51
2018-03-28T00:15:49.380Z,98.6
2018-03-28T00:16:29.907Z,98.32
2018-03-28T00:17:10.395Z,98.6
2018-03-28T00:17:50.880Z,99.37
2018-03-28T00:18:31.398Z,98.41
2018-03-28T00:19:11.929Z,98.6
2018-03-28T00:19:52.453Z,98.32
2018-03-28T00:20:32.908Z,97.99
2018-03-28T00:21:13.392Z,98.03
2018-03-28T00:21:53.899Z,98.89
2018-03-28T00:22:34.406Z,98.7
2018-03-28T00:23:14.959Z,98.32
2018-03-28T00:23:55.472Z,98.7
2018-03-28T00:24:35.957Z,98.7
2018-03-28T00:25:16.439Z,98.6
2018-03-28T00:25:56.903Z,98.7
2018-03-28T00:26:37.397Z,98.6
2018-03-28T00:27:17.902Z,99.32
2018-03-28T00:27:58.403Z,98.36
2018-03-28T00:28:38.920Z,98.18
2018-03-28T00:29:19.390Z,98.32
2018-03-28T00:29:59.917Z,98.7
2018-03-28T00:30:40.398Z,98.89
2018-03-28T00:31:20.912Z,99.18
2018-03-28T00:32:01.392Z,99.55
2018-03-28T00:32:41.857Z,98.99
2018-03-28T00:33:22.413Z,98.89
2018-03-28T00:34:02.862Z,98.75
2018-03-28T00:34:43.429Z,98.89
2018-03-28T00:35:23.917Z,99.55
2018-03-28T00:36:04.405Z,99.55
2018-03-28T00:36:44.881Z,99.65
2018-03-28T00:37:25.371Z,99.99
2018-03-28T00:38:05.821Z,99.75
2018-03-28T00:38:46.323Z,99.99
2018-03-28T00:39:26.859Z,99.99
2018-03-28T00:40:07.380Z,99.99
2018-03-28T00:40:47.819Z,99.99
2018-03-28T00:41:28.314Z,99.99
2018-03-28T00:42:08.797Z,99.99
2018-03-28T00:42:49.319Z,99.99
2018-03-28T00:43:29.779Z,99.99
2018-03-28T00:44:10.276Z,99.99
2018-03-28T00:44:50.772Z,99.99
2018-03-28T00:45:31.216Z,99.99
2018-03-28T00:46:11.714Z,99.99
2018-03-28T00:46:52.212Z,99.99
2018-03-28T00:47:32.701Z,99.99
2018-03-28T00:48:13.164Z,99.99
2018-03-28T00:48:53.649Z,99.99
2018-03-28T00:49:34.174Z,99.99
2018-03-28T00:50:14.666Z,99.99
2018-03-28T00:50:55.140Z,99.99
2018-03-28T00:51:35.631Z,99.99
2018-03-28T00:52:16.116Z,99.99
2018-03-28T00:52:56.595Z,99.99
2018-03-28T00:53:37.109Z,99.99
2018-03-28T00:54:17.583Z,99.99
2018-03-28T00:54:58.061Z,99.99
2018-03-28T00:55:38.605Z,99.99
2018-03-28T00:56:19.138Z,99.99
2018-03-28T00:56:59.596Z,99.99
2018-03-28T00:57:40.108Z,99.99
2018-03-28T00:58:20.625Z,99.99
2018-03-28T00:59:01.107Z,99.99
2018-03-28T00:59:41.566Z,99.99
2018-03-28T01:00:22.033Z,99.99
2018-03-28T01:01:02.496Z,99.99
2018-03-28T01:01:43.037Z,99.99
2018-03-28T01:02:23.483Z,99.99
2018-03-28T01:03:03.971Z,99.99
2018-03-28T01:03:44.528Z,99.99
2018-03-28T01:04:25.016Z,99.99
2018-03-28T01:05:05.514Z,99.99
2018-03-28T01:05:45.984Z,99.99
2018-03-28T01:06:26.449Z,99.99
2018-03-28T01:07:06.932Z,99.99
2018-03-28T01:07:47.420Z,99.99
2018-03-28T01:08:27.940Z,99.99
2018-03-28T01:09:08.401Z,99.99
2018-03-28T01:09:48.943Z,99.99
2018-03-28T01:10:29.385Z,99.99
2018-03-28T01:11:09.944Z,99.99
2018-03-28T01:11:50.443Z,99.99
2018-03-28T01:12:30.917Z,99.99
2018-03-28T01:13:11.397Z,99.99
2018-03-28T01:13:51.900Z,99.99
2018-03-28T01:14:32.441Z,99.99
2018-03-28T01:15:12.924Z,99.99
2018-03-28T01:15:53.397Z,99.99
2018-03-28T01:16:33.872Z,99.99
2018-03-28T01:17:14.383Z,99.99
2018-03-28T01:17:54.853Z,99.99
2018-03-28T01:18:35.364Z,99.99
2018-03-28T01:19:15.898Z,99.99
2018-03-28T01:19:56.368Z,99.99
2018-03-28T01:20:36.847Z,99.99
2018-03-28T01:21:17.335Z,99.99
2018-03-28T01:21:57.839Z,99.99
2018-03-28T01:22:38.336Z,99.99
2018-03-28T01:23:18.845Z,99.99
2018-03-28T01:23:59.334Z,99.99
2018-03-28T01:24:39.818Z,99.99
2018-03-28T01:25:20.318Z,99.99
2018-03-28T01:26:00.792Z,99.99
2018-03-28T01:26:41.317Z,99.99
2018-03-28T01:27:21.817Z,99.99
2018-03-28T01:28:02.303Z,99.99
2018-03-28T01:28:42.793Z,99.99
2018-03-28T01:29:23.256Z,99.99
2018-03-28T01:30:03.765Z,99.99
2018-03-28T01:30:44.238Z,99.99
2018-03-28T01:31:24.715Z,99.99
2018-03-28T01:32:05.239Z,99.99
2018-03-28T01:32:45.727Z,99.99
2018-03-28T01:33:26.238Z,99.99
2018-03-28T01:34:06.678Z,99.99
2018-03-28T01:34:47.146Z,99.99
2018-03-28T01:35:27.671Z,99.99
2018-03-28T01:36:08.127Z,99.99
2018-03-28T01:36:48.619Z,99.99
2018-03-28T01:37:29.100Z,99.99
2018-03-28T01:38:09.589Z,99.99
2018-03-28T01:38:50.082Z,99.99
2018-03-28T01:39:30.544Z,99.99
2018-03-28T01:40:11.041Z,99.99
2018-03-28T01:40:51.517Z,99.99
2018-03-28T01:41:32.026Z,99.99
2018-03-28T01:42:12.510Z,99.99
2018-03-28T01:42:53.090Z,99.99
2018-03-28T01:43:33.556Z,99.99
2018-03-28T01:44:14.105Z,99.99
2018-03-28T01:44:54.613Z,99.99
2018-03-28T01:45:35.061Z,99.99
2018-03-28T01:46:15.566Z,99.99
2018-03-28T01:46:56.042Z,99.99
2018-03-28T01:47:36.553Z,99.99
2018-03-28T01:48:17.021Z,99.99
2018-03-28T01:48:57.499Z,99.99
2018-03-28T01:49:38.010Z,99.99
2018-03-28T01:50:18.430Z,99.99
2018-03-28T01:50:58.967Z,99.99
2018-03-28T01:51:39.418Z,99.99
2018-03-28T01:52:19.923Z,99.99
2018-03-28T01:53:00.404Z,99.99
2018-03-28T01:53:40.901Z,99.99
2018-03-28T01:54:21.472Z,99.99
2018-03-28T01:55:01.833Z,99.99
2018-03-28T01:55:42.338Z,99.99
2018-03-28T01:56:22.824Z,99.99
2018-03-28T01:57:03.337Z,99.99
2018-03-28T01:57:43.830Z,99.99
2018-03-28T01:58:24.274Z,99.99
2018-03-28T01:59:04.756Z,99.99
2018-03-28T01:59:45.285Z,99.99
2018-03-28T02:00:25.759Z,99.99
2018-03-28T02:01:06.251Z,99.99
2018-03-28T02:01:46.912Z,99.99
2018-03-28T02:02:27.387Z,99.99
2018-03-28T02:03:07.871Z,99.99
2018-03-28T02:03:48.437Z,99.99
2018-03-28T02:04:28.892Z,99.99
2018-03-28T02:05:09.401Z,99.99
2018-03-28T02:05:49.887Z,99.99
2018-03-28T02:06:30.388Z,99.99
2018-03-28T02:07:10.840Z,99.99
2018-03-28T02:07:51.429Z,99.99
2018-03-28T02:08:31.932Z,99.99
2018-03-28T02:09:12.358Z,99.99
2018-03-28T02:09:52.852Z,99.99
2018-03-28T02:10:33.350Z,99.99
2018-03-28T02:11:13.844Z,99.99
2018-03-28T02:11:54.305Z,99.99
2018-03-28T02:12:34.814Z,99.99
2018-03-28T02:13:15.345Z,99.99
2018-03-28T02:13:55.766Z,99.99
2018-03-28T02:14:36.270Z,99.99
2018-03-28T02:15:16.732Z,99.99
2018-03-28T02:15:57.294Z,99.99
2018-03-28T02:16:37.689Z,99.99
2018-03-28T02:17:18.164Z,99.99
2018-03-28T02:17:58.679Z,99.99
2018-03-28T02:18:39.217Z,99.99
2018-03-28T02:19:19.680Z,99.99
2018-03-28T02:20:00.164Z,99.99
2018-03-28T02:20:40.638Z,99.99
2018-03-28T02:21:21.126Z,99.99
2018-03-28T02:22:01.609Z,99.99
2018-03-28T02:22:42.072Z,99.99
2018-03-28T02:23:22.601Z,99.99
2018-03-28T02:24:03.062Z,99.99
2018-03-28T02:24:43.587Z,99.99
2018-03-28T02:25:24.067Z,99.99
2018-03-28T02:26:04.522Z,99.99
2018-03-28T02:26:45.039Z,99.99
2018-03-28T02:27:25.527Z,99.99
2018-03-28T02:28:06.016Z,99.99
2018-03-28T02:28:46.528Z,99.99
2018-03-28T02:29:27.009Z,99.99
2018-03-28T02:30:07.521Z,99.99
2018-03-28T02:32:07.520Z,99.99
2018-03-28T02:32:48.031Z,99.99
2018-03-28T02:33:28.556Z,99.99
2018-03-28T02:34:09.064Z,99.99
2018-03-28T02:34:49.605Z,99.99
2018-03-28T02:35:30.121Z,99.99
2018-03-28T02:36:10.634Z,99.99
2018-03-28T02:36:51.152Z,99.99
2018-03-28T02:37:31.667Z,99.99
2018-03-28T02:38:12.174Z,99.99
2018-03-28T02:38:52.687Z,99.99
2018-03-28T02:39:33.214Z,99.99
2018-03-28T02:40:13.703Z,99.99
2018-03-28T02:40:54.201Z,99.99
2018-03-28T02:41:34.750Z,99.99
2018-03-28T02:42:15.251Z,99.99
2018-03-28T02:42:55.761Z,99.99
2018-03-28T02:43:36.276Z,99.99
2018-03-28T02:44:16.798Z,99.99
2018-03-28T02:44:57.312Z,99.99
2018-03-28T02:45:37.822Z,99.99
2018-03-28T02:46:18.352Z,99.99
2018-03-28T02:46:58.854Z,99.99
2018-03-28T02:47:39.405Z,99.99
2018-03-28T02:48:19.921Z,99.99
2018-03-28T02:49:00.444Z,99.99
2018-03-28T02:49:40.955Z,99.99
2018-03-28T02:50:21.465Z,99.99
2018-03-28T02:51:01.978Z,99.99
2018-03-28T02:51:42.490Z,99.99
2018-03-28T02:52:23.018Z,99.99
2018-03-28T02:53:03.514Z,99.99
2018-03-28T02:53:44.054Z,99.99
2018-03-28T02:54:24.577Z,99.99
2018-03-28T02:55:05.096Z,99.99
2018-03-28T02:55:45.605Z,99.99
2018-03-28T02:56:26.123Z,99.99
2018-03-28T02:57:06.623Z,99.99
2018-03-28T02:57:47.136Z,99.99
2018-03-28T02:58:27.659Z,99.99
2018-03-28T02:59:08.178Z,99.99
2018-03-28T02:59:48.700Z,99.99
2018-03-28T03:00:29.253Z,99.99
2018-03-28T03:01:09.820Z,99.99
2018-03-28T03:01:50.302Z,99.99
2018-03-28T03:02:30.887Z,99.99
2018-03-28T03:03:11.404Z,99.99
2018-03-28T03:03:51.920Z,99.99
2018-03-28T03:04:32.439Z,99.99
2018-03-28T03:05:12.955Z,99.99
2018-03-28T03:05:53.485Z,99.99
2018-03-28T03:06:34.025Z,99.99
2018-03-28T03:07:14.540Z,99.99
2018-03-28T03:07:55.060Z,99.99
2018-03-28T03:08:35.582Z,99.99
2018-03-28T03:09:16.104Z,99.99
2018-03-28T03:09:56.616Z,99.99
2018-03-28T03:10:37.133Z,99.99
2018-03-28T03:11:17.651Z,99.99
2018-03-28T03:11:58.153Z,99.99
2018-03-28T03:12:38.661Z,99.99
2018-03-28T03:13:19.192Z,99.99
2018-03-28T03:13:59.704Z,99.99
2018-03-28T03:14:40.217Z,99.99
2018-03-28T03:15:20.738Z,99.99
2018-03-28T03:16:01.257Z,99.99
2018-03-28T03:16:41.776Z,99.99
2018-03-28T03:17:22.288Z,99.99
2018-03-28T03:18:02.808Z,99.99
2018-03-28T03:18:43.322Z,99.99
2018-03-28T03:19:23.834Z,99.99
2018-03-28T03:20:04.357Z,99.99
2018-03-28T03:20:44.879Z,99.99
2018-03-28T03:21:25.372Z,99.99
2018-03-28T03:22:05.900Z,99.99
2018-03-28T03:22:46.400Z,99.99
2018-03-28T03:23:26.916Z,99.99
2018-03-28T03:24:07.437Z,99.99
2018-03-28T03:24:47.935Z,99.99
2018-03-28T03:25:28.449Z,99.99
2018-03-28T03:26:08.968Z,99.99
2018-03-28T03:26:49.484Z,99.99
2018-03-28T03:27:29.989Z,99.99
2018-03-28T03:28:10.556Z,99.99
2018-03-28T03:28:51.017Z,99.99
2018-03-28T03:29:31.547Z,99.99
2018-03-28T03:30:12.070Z,99.99
2018-03-28T03:30:52.584Z,99.99
2018-03-28T03:31:33.104Z,99.99
2018-03-28T03:32:13.605Z,99.99
2018-03-28T03:32:54.123Z,99.99
2018-03-28T03:33:34.638Z,99.99
2018-03-28T03:34:15.183Z,99.99
2018-03-28T03:34:55.724Z,99.99
2018-03-28T03:35:36.257Z,99.99
2018-03-28T03:36:16.767Z,99.99
2018-03-28T03:36:57.313Z,99.99
2018-03-28T03:37:37.800Z,99.99
2018-03-28T03:38:18.310Z,99.99
2018-03-28T03:38:58.823Z,99.99
2018-03-28T03:39:39.345Z,99.99
2018-03-28T03:40:19.848Z,99.99
2018-03-28T03:41:00.483Z,99.99
2018-03-28T03:41:40.990Z,99.99
2018-03-28T03:42:21.523Z,99.99
2018-03-28T03:43:02.032Z,99.99
2018-03-28T03:43:42.544Z,99.99
2018-03-28T03:44:23.054Z,99.99
2018-03-28T03:45:03.571Z,99.99
2018-03-28T03:45:44.076Z,99.99
2018-03-28T03:46:24.593Z,99.99
2018-03-28T03:47:05.125Z,99.99
2018-03-28T03:47:45.658Z,99.99
2018-03-28T03:48:26.189Z,99.99
2018-03-28T03:49:06.716Z,99.99
2018-03-28T03:49:47.317Z,99.99
2018-03-28T03:50:27.832Z,99.99
2018-03-28T03:51:08.336Z,99.99
2018-03-28T03:51:48.846Z,99.99
2018-03-28T03:52:29.344Z,99.99
2018-03-28T03:53:09.881Z,99.99
2018-03-28T03:53:50.396Z,99.99
2018-03-28T03:54:30.915Z,99.99
2018-03-28T03:55:11.413Z,99.99
2018-03-28T03:55:51.934Z,99.99
2018-03-28T03:56:32.458Z,99.99
2018-03-28T03:57:12.987Z,99.99
2018-03-28T03:57:53.496Z,99.99
2018-03-28T03:58:34.029Z,99.99
2018-03-28T03:59:14.532Z,99.99
2018-03-28T03:59:55.044Z,99.99
2018-03-28T04:00:35.584Z,99.99
2018-03-28T04:01:16.095Z,99.99
2018-03-28T04:01:56.595Z,99.99
2018-03-28T04:02:37.113Z,99.99
2018-03-28T04:03:17.632Z,99.99
2018-03-28T04:03:58.154Z,99.99
2018-03-28T04:04:38.667Z,99.99
2018-03-28T04:05:19.185Z,99.99
2018-03-28T04:05:59.695Z,99.99
2018-03-28T04:06:40.214Z,99.99
2018-03-28T04:07:20.752Z,99.99
2018-03-28T04:08:01.277Z,99.99
2018-03-28T04:08:41.788Z,99.99
2018-03-28T04:09:22.305Z,99.99
2018-03-28T04:10:02.861Z,99.99
2018-03-28T04:10:43.379Z,99.99
2018-03-28T04:11:23.895Z,99.99
2018-03-28T04:12:04.425Z,99.99
2018-03-28T04:12:44.941Z,99.99
2018-03-28T04:13:25.454Z,99.99
2018-03-28T04:14:05.966Z,99.99
2018-03-28T04:14:46.482Z,99.99
2018-03-28T04:15:27.006Z,99.99
2018-03-28T04:16:07.527Z,99.99
2018-03-28T04:16:48.038Z,99.99
2018-03-28T04:17:28.551Z,99.99
2018-03-28T04:18:09.073Z,99.99
2018-03-28T04:18:49.583Z,99.99
2018-03-28T04:19:30.096Z,99.99
2018-03-28T04:20:10.603Z,99.99
2018-03-28T04:20:51.144Z,99.99
2018-03-28T04:21:31.663Z,99.99
2018-03-28T04:22:12.180Z,99.99
2018-03-28T04:22:52.695Z,99.99
2018-03-28T04:23:33.226Z,99.99
2018-03-28T04:24:13.738Z,99.99
2018-03-28T04:24:54.281Z,99.99
2018-03-28T04:25:34.780Z,99.99
2018-03-28T04:26:15.303Z,99.99
2018-03-28T04:26:55.821Z,99.99
2018-03-28T04:27:36.325Z,99.99
2018-03-28T04:28:16.846Z,99.99
2018-03-28T04:28:57.377Z,99.99
2018-03-28T04:29:37.902Z,99.99
2018-03-28T04:30:18.438Z,99.99
2018-03-28T04:30:58.959Z,99.99
2018-03-28T04:31:39.470Z,99.99
2018-03-28T04:32:19.989Z,99.99
2018-03-28T04:33:00.533Z,99.99
2018-03-28T04:33:41.048Z,99.99
2018-03-28T04:34:21.578Z,99.99
2018-03-28T04:35:02.083Z,99.99
2018-03-28T04:35:42.606Z,99.99
2018-03-28T04:36:23.129Z,99.99
2018-03-28T04:37:03.647Z,99.99
2018-03-28T04:37:44.160Z,99.99
2018-03-28T04:38:24.693Z,99.99
2018-03-28T04:39:05.205Z,99.99
2018-03-28T04:39:45.715Z,99.99
2018-03-28T04:40:26.248Z,99.99
2018-03-28T04:41:06.767Z,99.99
2018-03-28T04:41:47.296Z,99.99
2018-03-28T04:42:27.823Z,99.99
2018-03-28T04:43:08.332Z,99.99
2018-03-28T04:43:48.916Z,99.99
2018-03-28T04:44:29.383Z,99.99
2018-03-28T04:45:09.893Z,99.99
2018-03-28T04:45:50.410Z,99.99
2018-03-28T04:46:30.925Z,99.99
2018-03-28T04:47:11.451Z,99.99
2018-03-28T04:47:51.964Z,99.99
2018-03-28T04:48:32.481Z,99.99
2018-03-28T04:49:13.005Z,99.99
2018-03-28T04:49:53.518Z,99.99
2018-03-28T04:50:34.034Z,99.99
2018-03-28T04:51:14.553Z,99.99
2018-03-28T04:51:55.086Z,99.99
2018-03-28T04:52:35.578Z,99.99
2018-03-28T04:53:16.101Z,99.99
2018-03-28T04:53:56.631Z,99.99
2018-03-28T04:54:37.142Z,99.99
2018-03-28T04:55:17.672Z,99.99
2018-03-28T04:55:58.194Z,99.99
2018-03-28T04:56:38.733Z,99.99
2018-03-28T04:57:19.254Z,99.99
2018-03-28T04:57:59.780Z,99.99
2018-03-28T04:58:40.287Z,99.99
2018-03-28T04:59:20.794Z,99.99
2018-03-28T05:00:01.315Z,99.99
2018-03-28T05:00:41.898Z,99.99
2018-03-28T05:01:22.441Z,99.99
2018-03-28T05:02:02.968Z,99.99
2018-03-28T05:02:43.476Z,99.99
2018-03-28T05:03:24.020Z,99.99
2018-03-28T05:04:04.597Z,99.99
2018-03-28T05:04:45.061Z,99.99
2018-03-28T05:05:25.575Z,99.99
2018-03-28T05:06:06.090Z,99.99
2018-03-28T05:06:46.677Z,99.99
2018-03-28T05:07:27.183Z,99.99
2018-03-28T05:08:07.689Z,99.99
2018-03-28T05:08:48.236Z,99.99
2018-03-28T05:09:28.776Z,99.99
2018-03-28T05:10:09.262Z,99.99
2018-03-28T05:10:49.774Z,99.99
2018-03-28T05:11:30.300Z,99.99
2018-03-28T05:12:10.804Z,99.99
2018-03-28T05:12:51.286Z,99.99
2018-03-28T05:13:31.813Z,99.99
2018-03-28T05:14:12.320Z,99.99
2018-03-28T05:14:52.833Z,99.99
2018-03-28T05:15:33.347Z,99.99
2018-03-28T05:16:13.855Z,99.99
2018-03-28T05:16:54.426Z,99.99
2018-03-28T05:17:34.939Z,99.99
2018-03-28T05:18:15.475Z,99.99
2018-03-28T05:18:55.987Z,99.99
2018-03-28T05:19:36.505Z,99.99
2018-03-28T05:20:17.024Z,99.99
2018-03-28T05:20:57.523Z,99.99
2018-03-28T05:21:38.041Z,99.99
2018-03-28T05:22:18.611Z,99.99
2018-03-28T05:22:59.127Z,99.99
2018-03-28T05:23:39.670Z,99.99
2018-03-28T05:25:52.985Z,99.99
2018-03-28T05:26:33.504Z,99.99
2018-03-28T05:27:14.027Z,99.99
2018-03-28T05:27:54.606Z,99.99
2018-03-28T05:28:35.110Z,99.99
2018-03-28T05:29:15.625Z,99.99
2018-03-28T05:29:56.146Z,99.99
2018-03-28T05:30:36.655Z,99.99
2018-03-28T05:31:17.141Z,99.99
2018-03-28T05:31:57.693Z,99.99
2018-03-28T05:32:38.308Z,99.99
2018-03-28T05:33:18.817Z,99.99
2018-03-28T05:33:59.382Z,99.99
2018-03-28T05:34:39.875Z,99.99
2018-03-28T05:35:20.964Z,99.99
2018-03-28T05:36:01.472Z,99.99
2018-03-28T05:36:42.027Z,99.99
2018-03-28T05:37:22.524Z,99.99
2018-03-28T05:38:03.029Z,99.99
2018-03-28T05:38:43.563Z,99.99
2018-03-28T05:39:24.062Z,99.99
2018-03-28T05:40:04.568Z,99.99
2018-03-28T05:40:45.113Z,99.99
2018-03-28T05:41:25.586Z,99.99
2018-03-28T05:42:06.100Z,99.99
2018-03-28T05:42:46.643Z,99.66
2018-03-28T05:43:27.130Z,99.56
2018-03-28T05:44:07.653Z,99.85
2018-03-28T05:44:48.186Z,99.08
2018-03-28T05:45:28.706Z,99.37
2018-03-28T05:46:09.221Z,99.99
2018-03-28T05:46:49.858Z,99.08
2018-03-28T05:47:30.524Z,99.46
2018-03-28T05:48:11.185Z,99.08
2018-03-28T05:48:51.714Z,99.56
2018-03-28T05:49:32.227Z,99.66
2018-03-28T05:50:12.791Z,99.08
2018-03-28T05:50:53.444Z,99.27
2018-03-28T05:51:33.816Z,98.8
2018-03-28T05:52:14.315Z,98.7
2018-03-28T05:52:54.943Z,98.7
2018-03-28T05:53:35.357Z,99.46
2018-03-28T05:54:15.876Z,99.46
2018-03-28T05:54:56.400Z,99.99
2018-03-28T05:55:37.598Z,99.18
2018-03-28T05:56:19.076Z,98.7
2018-03-28T05:56:59.306Z,98.03
2018-03-28T05:57:39.820Z,98.51
2018-03-28T05:58:20.329Z,99.99
2018-03-28T05:59:00.783Z,99.99
2018-03-28T05:59:41.306Z,99.99
2018-03-28T06:00:21.874Z,99.99
2018-03-28T06:01:02.320Z,99.99
2018-03-28T06:01:42.780Z,99.99
2018-03-28T06:02:23.267Z,99.99
2018-03-28T06:03:03.757Z,99.99
2018-03-28T06:03:44.293Z,99.99
2018-03-28T06:04:24.792Z,99.99
2018-03-28T06:05:05.233Z,99.99
2018-03-28T06:05:45.748Z,99.99
2018-03-28T06:06:26.212Z,99.99
2018-03-28T06:07:06.705Z,99.99
2018-03-28T06:07:47.204Z,99.99
2018-03-28T06:08:27.731Z,99.99
2018-03-28T06:09:08.243Z,99.99
2018-03-28T06:09:48.706Z,99.99
2018-03-28T06:10:29.193Z,99.99
2018-03-28T06:11:09.686Z,99.99
2018-03-28T06:11:50.167Z,99.99
2018-03-28T06:12:30.651Z,99.99
2018-03-28T06:13:11.176Z,99.99
2018-03-28T06:13:51.681Z,99.99
2018-03-28T06:14:32.203Z,99.99
2018-03-28T06:15:12.642Z,99.99
2018-03-28T06:15:53.131Z,99.99
2018-03-28T06:16:33.627Z,99.99
2018-03-28T06:17:14.104Z,99.99
2018-03-28T06:17:54.612Z,99.99
2018-03-28T06:18:35.053Z,99.99
2018-03-28T06:19:15.576Z,99.99
2018-03-28T06:19:56.146Z,99.99
2018-03-28T06:20:36.644Z,99.99
2018-03-28T06:21:17.170Z,99.99
2018-03-28T06:21:57.729Z,99.99
2018-03-28T06:22:38.211Z,99.99
2018-03-28T06:23:18.742Z,99.99
2018-03-28T06:23:59.227Z,99.99
2018-03-28T06:24:39.725Z,99.99
2018-03-28T06:25:20.217Z,99.8
2018-03-28T06:26:00.713Z,98.47
2018-03-28T06:26:41.205Z,98.66
2018-03-28T06:27:21.724Z,98.18
2018-03-28T06:28:02.240Z,96.08
2018-03-28T06:28:42.811Z,95.32
2018-03-28T06:29:23.262Z,94.07
2018-03-28T06:30:03.790Z,93.98
2018-03-28T06:30:44.310Z,93.7
2018-03-28T06:31:24.816Z,93.41
2018-03-28T06:32:05.321Z,93.79
2018-03-28T06:32:45.848Z,94.56
2018-03-28T06:33:26.362Z,93.02
2018-03-28T06:34:06.898Z,92.17
2018-03-28T06:34:47.391Z,92.36
2018-03-28T06:35:27.920Z,92.26
2018-03-28T06:36:08.468Z,91.98
2018-03-28T06:36:48.970Z,92.55
2018-03-28T06:37:29.467Z,93.41
2018-03-28T06:38:09.981Z,93.51
2018-03-28T06:38:50.497Z,92.36
2018-03-28T06:39:31.002Z,92.17
2018-03-28T06:40:11.520Z,91.88
2018-03-28T06:40:52.056Z,91.31
2018-03-28T06:41:32.598Z,92.55
2018-03-28T06:42:13.036Z,91.69
2018-03-28T06:42:53.547Z,92.26
2018-03-28T06:43:34.019Z,91.88
2018-03-28T06:44:14.497Z,90.45
2018-03-28T06:44:54.986Z,90.64
2018-03-28T06:45:35.510Z,89.69
2018-03-28T06:46:16.014Z,99.04
2018-03-28T06:46:56.526Z,99.99
2018-03-28T06:47:37.051Z,99.99
2018-03-28T06:48:17.573Z,99.99
2018-03-28T06:48:58.097Z,99.99
2018-03-28T06:49:38.605Z,99.99
2018-03-28T06:50:19.115Z,99.99
2018-03-28T06:50:59.693Z,99.99
2018-03-28T06:51:40.177Z,99.99
2018-03-28T06:52:20.679Z,99.99
2018-03-28T06:53:01.200Z,99.99
2018-03-28T06:53:41.687Z,99.99
2018-03-28T06:54:22.211Z,99.99
2018-03-28T06:55:02.720Z,99.99
2018-03-28T06:55:43.284Z,99.99
2018-03-28T06:56:23.866Z,99.99
2018-03-28T06:57:04.334Z,99.99
2018-03-28T06:57:44.875Z,99.99
2018-03-28T06:58:25.329Z,99.99
2018-03-28T06:59:05.841Z,96.37
2018-03-28T06:59:46.313Z,92.26
2018-03-28T07:00:26.812Z,91.59
2018-03-28T07:01:07.284Z,89.49
2018-03-28T07:01:47.785Z,99.99
2018-03-28T07:02:28.286Z,99.99
2018-03-28T07:03:08.754Z,99.99
2018-03-28T07:03:49.220Z,99.99
2018-03-28T07:04:29.748Z,99.99
2018-03-28T07:05:10.217Z,99.99
2018-03-28T07:05:50.691Z,99.99
2018-03-28T07:06:31.207Z,99.99
2018-03-28T07:07:11.665Z,99.99
2018-03-28T07:07:52.263Z,99.99
2018-03-28T07:08:32.743Z,99.99
2018-03-28T07:09:13.258Z,99.99
2018-03-28T07:09:53.856Z,99.99
2018-03-28T07:10:34.313Z,99.99
2018-03-28T07:11:14.779Z,99.99
2018-03-28T07:11:55.327Z,95.7
2018-03-28T07:12:35.812Z,93.31
2018-03-28T07:13:16.448Z,90.83
2018-03-28T07:13:56.969Z,89.97
2018-03-28T07:14:37.510Z,87.68
2018-03-28T07:15:17.950Z,87.77
2018-03-28T07:15:58.400Z,86.43
2018-03-28T07:16:39.042Z,86.43
2018-03-28T07:17:19.468Z,85.29
2018-03-28T07:17:59.964Z,85.1
2018-03-28T07:18:40.435Z,84.48
2018-03-28T07:19:20.947Z,84.48
2018-03-28T07:20:01.463Z,84.72
2018-03-28T07:20:41.955Z,85.29
2018-03-28T07:21:22.409Z,84.62
2018-03-28T07:22:02.924Z,83.09
2018-03-28T07:22:43.448Z,99.99
2018-03-28T07:23:23.942Z,99.99
2018-03-28T07:24:04.387Z,99.99
2018-03-28T07:24:45.014Z,99.99
2018-03-28T07:25:25.480Z,99.99
2018-03-28T07:26:05.993Z,99.99
2018-03-28T07:26:46.471Z,99.99
2018-03-28T07:27:27.135Z,99.99
2018-03-28T07:28:07.646Z,99.99
2018-03-28T07:28:48.168Z,99.99
2018-03-28T07:29:28.831Z,99.99
2018-03-28T07:30:09.264Z,99.99
2018-03-28T07:30:49.760Z,95.03
2018-03-28T07:31:30.251Z,88.58
2018-03-28T07:32:10.943Z,86.76
2018-03-28T07:32:51.444Z,84.28
2018-03-28T07:33:31.914Z,82.94
2018-03-28T07:34:12.501Z,83.04
2018-03-28T07:34:52.956Z,83.42
2018-03-28T07:35:33.503Z,81.76
2018-03-28T07:36:13.959Z,80.8
2018-03-28T07:36:54.502Z,80.99
2018-03-28T07:37:34.972Z,81.13
2018-03-28T07:38:15.478Z,89.34
2018-03-28T07:38:55.923Z,86.38
2018-03-28T07:39:36.490Z,89.92
2018-03-28T07:40:17.003Z,90.49
2018-03-28T07:40:57.503Z,95.22
2018-03-28T07:41:38.002Z,92.07
2018-03-28T07:42:18.552Z,92.83
2018-03-28T07:42:59.093Z,95.98
2018-03-28T07:43:39.590Z,90.34
2018-03-28T07:44:20.245Z,84.89
2018-03-28T07:45:00.777Z,81.55
2018-03-28T07:45:41.277Z,80.21
2018-03-28T07:46:21.691Z,80.79
2018-03-28T07:47:02.266Z,80.98
2018-03-28T07:47:42.848Z,79.54
2018-03-28T07:48:23.269Z,78.68
2018-03-28T07:49:03.730Z,78.11
2018-03-28T07:49:44.221Z,77.72
2018-03-28T07:50:24.662Z,79.49
2018-03-28T07:51:05.242Z,79
2018-03-28T07:51:45.768Z,78.81
2018-03-28T07:52:26.231Z,78.43
2018-03-28T07:53:06.738Z,78.05
2018-03-28T07:53:47.233Z,78.53
2018-03-28T07:54:27.742Z,95.75
2018-03-28T07:55:08.233Z,99.99
2018-03-28T07:55:48.733Z,99.99
2018-03-28T07:56:29.192Z,99.99
2018-03-28T07:57:09.871Z,99.99
2018-03-28T07:57:50.386Z,99.99
2018-03-28T07:58:30.988Z,99.48
2018-03-28T07:59:11.571Z,99.99
2018-03-28T07:59:51.976Z,98.52
2018-03-28T08:00:32.476Z,98.9
2018-03-28T08:01:12.966Z,99.99
2018-03-28T08:01:53.442Z,92.21
2018-03-28T08:02:33.937Z,84.84
2018-03-28T08:03:14.486Z,80.59
2018-03-28T08:03:55.034Z,80.4
2018-03-28T08:04:35.494Z,79.25
2018-03-28T08:05:16.085Z,80.69
2018-03-28T08:05:56.894Z,79.44
2018-03-28T08:06:37.261Z,78.34
2018-03-28T08:07:17.746Z,78.43
2018-03-28T08:07:58.261Z,78.05
2018-03-28T08:08:38.745Z,77.57
2018-03-28T08:09:19.216Z,77.76
2018-03-28T08:09:59.765Z,77.28
2018-03-28T08:10:40.627Z,76.9
2018-03-28T08:11:20.882Z,77.86
2018-03-28T08:12:01.496Z,81.05
2018-03-28T08:12:42.189Z,77.33
2018-03-28T08:13:22.764Z,77.42
2018-03-28T08:14:03.362Z,76.37
2018-03-28T08:14:44.122Z,75.79
2018-03-28T08:15:24.652Z,76.98
2018-03-28T08:16:05.138Z,76.89
2018-03-28T08:16:45.698Z,76.4
2018-03-28T08:17:26.253Z,76.5
2018-03-28T08:18:06.720Z,77.46
2018-03-28T08:18:47.269Z,89.47
2018-03-28T08:19:27.731Z,89.09
2018-03-28T08:20:08.186Z,90.05
2018-03-28T08:20:48.769Z,90.39
2018-03-28T08:21:29.375Z,91.77
2018-03-28T08:22:10.001Z,91.58
2018-03-28T08:22:50.417Z,89.9
2018-03-28T08:23:31.045Z,92.15
2018-03-28T08:24:11.589Z,81.62
2018-03-28T08:24:52.154Z,76.31
2018-03-28T08:25:32.603Z,74.3
2018-03-28T08:26:13.111Z,72.86
2018-03-28T08:26:53.586Z,72.86
2018-03-28T08:27:34.099Z,72.67
2018-03-28T08:28:14.545Z,72.96
2018-03-28T08:28:55.132Z,72.77
2018-03-28T08:29:35.744Z,72.38
2018-03-28T08:30:16.237Z,72.19
2018-03-28T08:30:56.742Z,71.46
2018-03-28T08:31:37.267Z,80.66
2018-03-28T08:32:17.701Z,85.35
2018-03-28T08:32:58.233Z,90.91
2018-03-28T08:33:38.706Z,91.77
2018-03-28T08:34:19.663Z,94.45
2018-03-28T08:35:00.059Z,95.6
2018-03-28T08:35:40.579Z,94.45
2018-03-28T08:36:21.074Z,95.03
2018-03-28T08:37:01.565Z,94.45
2018-03-28T08:37:42.125Z,84.3
2018-03-28T08:38:22.657Z,77.94
2018-03-28T08:39:03.109Z,74.68
2018-03-28T08:39:43.780Z,74.11
2018-03-28T08:40:24.239Z,73.47
2018-03-28T08:41:04.752Z,72.61
2018-03-28T08:41:45.370Z,72.61
2018-03-28T08:42:25.968Z,70.98
2018-03-28T08:43:06.849Z,79.51
2018-03-28T08:43:47.361Z,94.07
2018-03-28T08:44:27.869Z,90.05
2018-03-28T08:45:08.711Z,89.57